createdAt,value
2017-12-30T00:00:03.247Z,86.50
2017-12-30T00:02:29.683Z,86.70
2017-12-30T00:04:56.925Z,87.50
2017-12-30T00:07:25.256Z,88.70
2017-12-30T00:09:52.528Z,88.70
2017-12-30T00:12:19.724Z,89.80
2017-12-30T00:14:46.188Z,89.80
2017-12-30T00:17:12.816Z,90.20
2017-12-30T00:19:39.993Z,90.50
2017-12-30T00:22:07.298Z,90.70
2017-12-30T00:24:33.823Z,90.70
2017-12-30T00:27:02.525Z,90.70
2017-12-30T00:29:29.805Z,91.10
2017-12-30T00:31:57.032Z,91.20
2017-12-30T00:34:23.482Z,91.20
2017-12-30T00:36:50.092Z,91.30
2017-12-30T00:39:17.338Z,91.50
2017-12-30T00:41:43.827Z,91.50
2017-12-30T00:44:14.371Z,91.60
2017-12-30T00:46:41.617Z,91.70
2017-12-30T00:49:08.101Z,91.60
2017-12-30T00:51:35.338Z,91.60
2017-12-30T00:54:09.102Z,91.60
2017-12-30T00:56:35.697Z,91.50
2017-12-30T00:59:02.210Z,91.60
2017-12-30T01:01:37.970Z,91.70
2017-12-30T01:04:05.303Z,91.50
2017-12-30T01:06:32.063Z,91.40
2017-12-30T01:08:58.781Z,91.80
2017-12-30T01:11:46.021Z,91.60
2017-12-30T01:14:12.864Z,91.60
2017-12-30T01:16:40.218Z,91.50
2017-12-30T01:19:06.958Z,91.50
2017-12-30T01:21:36.358Z,91.40
2017-12-30T01:24:03.099Z,91.40
2017-12-30T01:26:30.844Z,91.30
2017-12-30T01:28:58.523Z,91.30
2017-12-30T01:31:25.778Z,91.30
2017-12-30T01:33:52.616Z,91.30
2017-12-30T01:36:19.457Z,91.20
2017-12-30T01:40:41.094Z,91.30
2017-12-30T01:49:14.195Z,91.20
2017-12-30T01:51:40.957Z,91.10
2017-12-30T01:54:07.679Z,91.00
2017-12-30T01:56:34.364Z,91.00
2017-12-30T01:59:08.025Z,91.00
2017-12-30T02:01:34.777Z,91.00
2017-12-30T02:04:01.514Z,91.00
2017-12-30T02:06:28.254Z,91.10
2017-12-30T02:08:55.996Z,91.10
2017-12-30T02:11:23.641Z,91.10
2017-12-30T02:13:50.193Z,91.20
2017-12-30T02:16:17.469Z,91.20
2017-12-30T02:19:02.027Z,91.20
2017-12-30T02:21:29.250Z,91.10
2017-12-30T02:23:55.756Z,91.10
2017-12-30T02:26:28.453Z,91.10
2017-12-30T02:28:55.726Z,91.10
2017-12-30T02:31:23.001Z,91.10
2017-12-30T02:33:50.275Z,91.20
2017-12-30T02:36:21.439Z,91.10
2017-12-30T02:38:48.710Z,91.20
2017-12-30T02:41:15.990Z,91.20
2017-12-30T02:43:42.544Z,91.10
2017-12-30T02:49:07.365Z,91.20
2017-12-30T02:51:33.925Z,91.20
2017-12-30T02:54:01.123Z,91.30
2017-12-30T02:56:27.615Z,91.30
2017-12-30T02:58:54.219Z,91.40
2017-12-30T03:01:20.772Z,91.40
2017-12-30T03:03:47.990Z,91.50
2017-12-30T03:06:14.506Z,91.50
2017-12-30T03:08:41.048Z,91.60
2017-12-30T03:11:08.572Z,91.60
2017-12-30T03:13:35.120Z,91.50
2017-12-30T03:16:01.601Z,91.60
2017-12-30T03:18:29.097Z,91.70
2017-12-30T03:20:55.577Z,91.70
2017-12-30T03:23:22.783Z,91.70
2017-12-30T03:25:49.327Z,91.70
2017-12-30T03:28:15.847Z,91.70
2017-12-30T03:30:42.305Z,91.70
2017-12-30T03:33:08.752Z,91.60
2017-12-30T03:35:36.783Z,91.70
2017-12-30T03:38:04.017Z,91.60
2017-12-30T03:40:37.055Z,91.60
2017-12-30T03:43:04.341Z,91.50
2017-12-30T03:45:30.892Z,91.50
2017-12-30T03:48:00.130Z,91.60
2017-12-30T03:50:26.584Z,91.60
2017-12-30T03:52:53.053Z,91.60
2017-12-30T03:55:23.160Z,91.60
2017-12-30T03:57:50.435Z,91.60
2017-12-30T04:00:17.621Z,91.60
2017-12-30T04:02:44.167Z,91.60
2017-12-30T04:05:11.442Z,91.90
2017-12-30T04:07:42.396Z,92.10
2017-12-30T04:10:09.672Z,92.30
2017-12-30T04:12:36.852Z,92.60
2017-12-30T04:15:11.789Z,92.60
2017-12-30T04:17:39.063Z,93.10
2017-12-30T04:20:07.178Z,93.30
2017-12-30T04:22:37.293Z,93.30
2017-12-30T04:25:04.568Z,93.70
2017-12-30T04:27:31.741Z,94.00
2017-12-30T04:29:58.298Z,94.00
2017-12-30T04:32:28.947Z,94.80
2017-12-30T04:34:56.144Z,94.60
2017-12-30T04:37:22.679Z,94.60
2017-12-30T04:40:05.607Z,94.80
2017-12-30T04:42:32.158Z,94.80
2017-12-30T04:44:59.433Z,94.90
2017-12-30T04:47:26.709Z,94.90
2017-12-30T04:49:57.869Z,94.90
2017-12-30T04:52:25.144Z,95.00
2017-12-30T04:54:52.418Z,94.90
2017-12-30T04:57:21.736Z,95.00
2017-12-30T04:59:49.013Z,95.00
2017-12-30T05:02:16.287Z,95.20
2017-12-30T05:04:43.560Z,95.20
2017-12-30T05:07:14.313Z,95.10
2017-12-30T05:09:41.477Z,95.10
2017-12-30T05:12:08.659Z,95.10
2017-12-30T05:14:35.216Z,95.10
2017-12-30T05:17:06.378Z,95.00
2017-12-30T05:19:32.940Z,95.00
2017-12-30T05:21:59.492Z,95.00
2017-12-30T05:24:26.871Z,94.80
2017-12-30T05:26:54.148Z,94.80
2017-12-30T05:29:21.137Z,94.80
2017-12-30T05:31:47.641Z,94.80
2017-12-30T05:34:15.252Z,94.70
2017-12-30T05:36:42.526Z,94.90
2017-12-30T05:39:09.630Z,94.80
2017-12-30T05:41:36.740Z,95.00
2017-12-30T05:44:03.361Z,95.10
2017-12-30T05:46:29.885Z,95.10
2017-12-30T05:48:57.088Z,95.00
2017-12-30T05:51:27.443Z,95.00
2017-12-30T05:53:54.617Z,95.00
2017-12-30T05:56:21.062Z,95.00
2017-12-30T05:58:47.549Z,95.00
2017-12-30T06:01:14.024Z,94.90
2017-12-30T06:03:40.474Z,94.90
2017-12-30T06:06:06.964Z,94.90
2017-12-30T06:08:40.983Z,95.00
2017-12-30T06:11:08.211Z,94.90
2017-12-30T06:13:34.710Z,94.90
2017-12-30T06:19:01.272Z,94.90
2017-12-30T06:21:28.546Z,94.60
2017-12-30T06:23:55.758Z,94.60
2017-12-30T06:26:22.234Z,94.60
2017-12-30T06:29:13.836Z,94.50
2017-12-30T06:31:40.891Z,94.60
2017-12-30T06:34:07.375Z,94.40
2017-12-30T06:36:34.097Z,94.40
2017-12-30T06:39:01.745Z,94.60
2017-12-30T06:41:29.038Z,94.80
2017-12-30T06:43:56.414Z,95.00
2017-12-30T06:55:08.659Z,95.10
2017-12-30T06:57:35.935Z,95.00
2017-12-30T07:00:03.257Z,94.80
2017-12-30T07:02:29.768Z,94.80
2017-12-30T07:05:17.912Z,94.60
2017-12-30T07:07:44.432Z,94.60
2017-12-30T07:10:10.921Z,94.60
2017-12-30T07:12:38.583Z,94.50
2017-12-30T07:15:05.876Z,94.60
2017-12-30T07:17:33.308Z,94.70
2017-12-30T07:19:59.791Z,94.70
2017-12-30T07:22:26.331Z,94.90
2017-12-30T07:24:52.830Z,95.10
2017-12-30T07:27:19.388Z,95.20
2017-12-30T07:29:46.663Z,95.40
2017-12-30T07:32:35.514Z,95.40
2017-12-30T07:35:02.751Z,95.40
2017-12-30T07:37:30.737Z,95.30
2017-12-30T07:45:43.538Z,95.10
2017-12-30T07:48:10.401Z,95.20
2017-12-30T07:50:37.677Z,94.90
2017-12-30T07:53:04.885Z,94.70
2017-12-30T07:55:31.955Z,94.70
2017-12-30T07:58:08.907Z,94.60
2017-12-30T08:00:36.118Z,94.40
2017-12-30T08:03:02.639Z,94.40
2017-12-30T08:05:50.399Z,94.20
2017-12-30T08:08:16.872Z,94.20
2017-12-30T08:10:43.382Z,94.20
2017-12-30T08:13:16.798Z,93.80
2017-12-30T08:15:43.288Z,93.80
2017-12-30T08:18:09.744Z,94.00
2017-12-30T08:20:53.138Z,93.40
2017-12-30T08:23:19.697Z,93.20
2017-12-30T08:25:46.971Z,93.00
2017-12-30T08:28:14.718Z,93.00
2017-12-30T08:30:46.328Z,93.00
2017-12-30T08:33:14.515Z,92.80
2017-12-30T08:35:41.741Z,92.60
2017-12-30T08:38:08.194Z,92.60
2017-12-30T08:40:42.898Z,92.60
2017-12-30T08:43:09.448Z,92.40
2017-12-30T08:45:36.726Z,92.30
2017-12-30T08:48:09.771Z,92.30
2017-12-30T08:50:36.388Z,92.10
2017-12-30T08:53:03.670Z,91.70
2017-12-30T08:55:47.606Z,91.60
2017-12-30T08:58:15.426Z,90.90
2017-12-30T09:00:42.052Z,90.90
2017-12-30T09:03:09.330Z,90.70
2017-12-30T09:05:35.972Z,90.70
2017-12-30T09:08:03.365Z,90.80
2017-12-30T09:10:37.307Z,90.80
2017-12-30T09:13:03.845Z,90.80
2017-12-30T09:15:31.744Z,91.00
2017-12-30T09:17:58.296Z,91.00
2017-12-30T09:20:24.850Z,91.10
2017-12-30T09:22:52.124Z,91.30
2017-12-30T09:25:19.415Z,91.30
2017-12-30T09:27:45.957Z,91.30
2017-12-30T09:30:13.234Z,91.70
2017-12-30T09:32:39.897Z,91.30
2017-12-30T09:35:07.180Z,90.70
2017-12-30T09:37:33.727Z,90.60
2017-12-30T09:40:00.285Z,90.80
2017-12-30T09:42:44.648Z,91.00
2017-12-30T09:45:11.196Z,91.10
2017-12-30T09:47:37.754Z,91.30
2017-12-30T09:50:05.029Z,91.60
2017-12-30T09:52:32.303Z,91.70
2017-12-30T09:54:59.493Z,91.90
2017-12-30T09:57:30.025Z,91.90
2017-12-30T09:59:57.298Z,92.00
2017-12-30T10:02:24.385Z,92.00
2017-12-30T10:04:50.875Z,92.00
2017-12-30T10:07:17.484Z,91.90
2017-12-30T10:09:44.758Z,91.70
2017-12-30T10:12:12.135Z,91.60
2017-12-30T10:14:39.439Z,91.50
2017-12-30T10:17:28.271Z,91.50
2017-12-30T10:19:54.823Z,91.50
2017-12-30T10:22:22.098Z,91.60
2017-12-30T10:24:49.335Z,91.40
2017-12-30T10:27:20.532Z,91.70
2017-12-30T10:29:47.808Z,91.30
2017-12-30T10:32:40.755Z,91.30
2017-12-30T10:35:07.251Z,91.30
2017-12-30T10:37:33.876Z,91.10
2017-12-30T10:40:09.217Z,91.00
2017-12-30T10:42:36.414Z,90.70
2017-12-30T10:45:02.968Z,90.70
2017-12-30T10:47:33.684Z,90.50
2017-12-30T10:50:00.889Z,90.20
2017-12-30T10:52:27.370Z,90.20
2017-12-30T10:54:54.545Z,90.00
2017-12-30T10:57:20.981Z,90.00
2017-12-30T10:59:47.427Z,89.40
2017-12-30T11:02:30.955Z,88.80
2017-12-30T11:04:58.814Z,88.60
2017-12-30T11:07:25.402Z,88.60
2017-12-30T11:10:01.375Z,88.10
2017-12-30T11:12:27.863Z,88.00
2017-12-30T11:14:54.327Z,87.70
2017-12-30T11:17:44.772Z,87.50
2017-12-30T11:20:12.047Z,87.80
2017-12-30T11:22:39.321Z,87.60
2017-12-30T11:25:13.656Z,87.90
2017-12-30T11:27:40.209Z,87.90
2017-12-30T11:30:07.484Z,88.60
2017-12-30T11:32:42.328Z,88.60
2017-12-30T11:35:09.602Z,88.50
2017-12-30T11:37:37.319Z,88.00
2017-12-30T11:40:03.949Z,88.00
2017-12-30T11:42:31.425Z,88.60
2017-12-30T11:45:02.720Z,88.80
2017-12-30T11:47:31.099Z,88.80
2017-12-30T11:50:07.535Z,89.00
2017-12-30T11:52:34.740Z,89.00
2017-12-30T11:55:05.059Z,89.90
2017-12-30T11:57:34.521Z,89.80
2017-12-30T12:00:02.725Z,89.70
2017-12-30T12:02:29.351Z,90.00
2017-12-30T12:04:58.844Z,90.10
2017-12-30T12:07:29.179Z,90.30
2017-12-30T12:09:55.705Z,90.00
2017-12-30T12:12:24.170Z,90.00
2017-12-30T12:14:52.933Z,90.10
2017-12-30T12:17:19.664Z,90.40
2017-12-30T12:19:47.867Z,91.40
2017-12-30T12:22:15.572Z,91.40
2017-12-30T12:24:44.271Z,92.00
2017-12-30T12:27:17.480Z,92.30
2017-12-30T12:29:46.834Z,92.70
2017-12-30T12:32:17.148Z,93.30
2017-12-30T12:34:48.120Z,93.20
2017-12-30T12:37:22.933Z,93.40
2017-12-30T12:39:52.454Z,93.30
2017-12-30T12:42:21.169Z,93.30
2017-12-30T12:44:50.907Z,93.10
2017-12-30T12:47:18.559Z,93.10
2017-12-30T12:49:46.898Z,93.00
2017-12-30T12:52:16.255Z,93.00
2017-12-30T12:54:53.994Z,93.10
2017-12-30T12:57:22.640Z,93.00
2017-12-30T12:59:51.351Z,92.90
2017-12-30T13:02:18.482Z,93.00
2017-12-30T13:04:48.864Z,93.10
2017-12-30T13:07:18.855Z,93.30
2017-12-30T13:10:01.574Z,93.50
2017-12-30T13:12:29.051Z,93.60
2017-12-30T13:14:55.603Z,93.60
2017-12-30T13:17:41.500Z,93.70
2017-12-30T13:20:07.944Z,93.70
2017-12-30T13:22:35.125Z,93.90
2017-12-30T13:25:01.774Z,93.80
2017-12-30T13:27:50.695Z,94.00
2017-12-30T13:30:17.293Z,94.00
2017-12-30T13:32:45.403Z,94.40
2017-12-30T13:35:13.102Z,94.60
2017-12-30T13:37:39.805Z,94.60
2017-12-30T13:40:06.542Z,94.90
2017-12-30T13:42:33.176Z,94.90
2017-12-30T13:44:59.898Z,95.10
2017-12-30T13:47:27.586Z,95.00
2017-12-30T13:50:00.771Z,95.00
2017-12-30T13:52:27.567Z,95.00
2017-12-30T13:54:55.069Z,95.00
2017-12-30T13:57:21.809Z,95.00
2017-12-30T14:00:02.870Z,95.30
2017-12-30T14:02:30.445Z,95.40
2017-12-30T14:04:58.007Z,95.40
2017-12-30T14:07:24.745Z,95.50
2017-12-30T14:09:52.279Z,95.60
2017-12-30T14:12:18.936Z,95.60
2017-12-30T14:14:46.701Z,95.90
2017-12-30T14:17:13.547Z,95.90
2017-12-30T14:19:40.182Z,96.00
2017-12-30T14:22:06.983Z,96.00
2017-12-30T14:24:33.862Z,96.00
2017-12-30T14:27:00.603Z,96.00
2017-12-30T14:29:27.140Z,96.10
2017-12-30T14:31:54.700Z,96.30
2017-12-30T14:34:22.151Z,96.10
2017-12-30T14:37:07.888Z,96.10
2017-12-30T14:39:34.473Z,96.20
2017-12-30T14:42:01.112Z,96.20
2017-12-30T14:44:27.946Z,96.40
2017-12-30T14:46:56.618Z,96.40
2017-12-30T14:49:23.170Z,96.40
2017-12-30T14:51:49.783Z,96.30
2017-12-30T14:54:38.362Z,96.30
2017-12-30T14:57:05.094Z,96.40
2017-12-30T14:59:31.783Z,96.30
2017-12-30T15:02:20.246Z,96.30
2017-12-30T15:04:46.783Z,96.30
2017-12-30T15:07:13.253Z,96.20
2017-12-30T15:09:39.895Z,96.30
2017-12-30T15:12:08.574Z,96.40
2017-12-30T15:15:30.918Z,96.60
2017-12-30T15:17:58.169Z,97.30
2017-12-30T15:20:24.809Z,97.00
2017-12-30T15:22:51.447Z,97.20
2017-12-30T15:25:18.080Z,97.30
2017-12-30T15:27:51.476Z,97.40
2017-12-30T15:30:18.117Z,97.40
2017-12-30T15:32:44.751Z,97.30
2017-12-30T15:35:12.105Z,97.30
2017-12-30T15:37:38.849Z,97.30
2017-12-30T15:40:05.532Z,97.30
2017-12-30T15:42:33.039Z,97.70
2017-12-30T15:45:06.231Z,97.40
2017-12-30T15:47:33.584Z,97.80
2017-12-30T15:50:00.222Z,97.80
2017-12-30T15:52:26.962Z,98.00
2017-12-30T15:54:59.639Z,98.10
2017-12-30T15:57:26.371Z,98.30
2017-12-30T15:59:54.757Z,98.80
2017-12-30T16:02:21.599Z,98.70
2017-12-30T16:04:54.380Z,98.80
2017-12-30T16:07:21.933Z,98.90
2017-12-30T16:09:49.386Z,99.10
2017-12-30T16:12:21.772Z,99.00
2017-12-30T16:14:49.121Z,99.00
2017-12-30T16:17:15.758Z,99.00
2017-12-30T16:19:42.396Z,99.10
2017-12-30T16:22:10.055Z,99.20
2017-12-30T16:24:37.613Z,99.20
2017-12-30T16:27:04.150Z,99.20
2017-12-30T16:29:37.749Z,99.10
2017-12-30T16:32:04.364Z,99.10
2017-12-30T16:34:31.022Z,99.20
2017-12-30T16:36:57.720Z,99.20
2017-12-30T16:39:24.996Z,99.30
2017-12-30T16:41:52.217Z,99.30
2017-12-30T16:44:18.725Z,99.20
2017-12-30T16:46:45.922Z,99.20
2017-12-30T16:49:12.455Z,99.20
2017-12-30T16:51:39.662Z,99.10
2017-12-30T16:54:06.290Z,99.10
2017-12-30T16:56:33.780Z,99.10
2017-12-30T16:59:00.327Z,99.10
2017-12-30T17:01:26.892Z,99.20
2017-12-30T17:03:53.444Z,99.50
2017-12-30T17:06:20.717Z,99.90
2017-12-30T17:08:49.095Z,99.90
2017-12-30T17:11:15.581Z,99.90
2017-12-30T17:13:42.131Z,99.90
2017-12-30T17:16:09.406Z,99.90
2017-12-30T17:18:36.784Z,99.90
2017-12-30T17:21:04.068Z,99.90
2017-12-30T17:23:30.721Z,99.90
2017-12-30T17:25:58.793Z,99.90
2017-12-30T17:28:26.058Z,99.90
2017-12-30T17:30:52.643Z,99.90
2017-12-30T17:33:19.921Z,99.90
2017-12-30T17:35:47.123Z,99.90
2017-12-30T17:38:13.590Z,99.90
2017-12-30T17:40:40.090Z,99.90
2017-12-30T17:43:07.293Z,99.90
2017-12-30T17:45:34.009Z,99.90
2017-12-30T17:48:00.495Z,99.90
2017-12-30T17:50:27.685Z,99.90
2017-12-30T17:52:54.333Z,99.90
2017-12-30T17:55:20.892Z,99.90
2017-12-30T17:57:47.658Z,99.90
2017-12-30T18:00:14.199Z,99.90
2017-12-30T18:02:41.612Z,99.90
2017-12-30T18:05:08.246Z,99.90
2017-12-30T18:07:35.622Z,99.90
2017-12-30T18:10:03.535Z,99.90
2017-12-30T18:12:30.019Z,99.90
2017-12-30T18:14:56.627Z,99.90
2017-12-30T18:17:24.527Z,99.90
2017-12-30T18:19:51.180Z,99.90
2017-12-30T18:22:17.736Z,99.90
2017-12-30T18:24:44.240Z,99.90
2017-12-30T18:27:10.853Z,99.90
2017-12-30T18:29:37.413Z,99.90
2017-12-30T18:32:03.920Z,99.90
2017-12-30T18:34:31.347Z,99.90
2017-12-30T18:36:58.623Z,99.90
2017-12-30T18:39:25.181Z,99.90
2017-12-30T18:41:52.505Z,99.90
2017-12-30T18:44:19.141Z,99.90
2017-12-30T18:46:46.084Z,99.90
2017-12-30T18:49:12.910Z,99.90
2017-12-30T18:51:39.516Z,99.90
2017-12-30T18:54:06.005Z,99.90
2017-12-30T18:56:32.518Z,99.90
2017-12-30T18:58:59.795Z,99.90
2017-12-30T19:01:27.075Z,99.90
2017-12-30T19:03:54.496Z,99.90
2017-12-30T19:06:21.010Z,99.90
2017-12-30T19:08:48.150Z,99.90
2017-12-30T19:11:14.734Z,99.80
2017-12-30T19:13:42.012Z,99.90
2017-12-30T19:16:08.568Z,99.90
2017-12-30T19:18:36.556Z,99.90
2017-12-30T19:21:03.219Z,99.80
2017-12-30T19:23:29.777Z,99.90
2017-12-30T19:25:57.040Z,99.70
2017-12-30T19:28:41.871Z,99.80
2017-12-30T19:31:08.348Z,99.70
2017-12-30T19:33:34.852Z,99.70
2017-12-30T19:36:03.417Z,99.70
2017-12-30T19:38:30.719Z,99.70
2017-12-30T19:40:57.269Z,99.70
2017-12-30T19:43:44.589Z,99.60
2017-12-30T19:46:11.145Z,99.60
2017-12-30T19:48:38.426Z,99.50
2017-12-30T19:51:04.958Z,99.50
2017-12-30T19:53:35.527Z,99.50
2017-12-30T19:56:02.038Z,99.80
2017-12-30T19:58:28.537Z,99.40
2017-12-30T20:00:59.103Z,99.60
2017-12-30T20:03:38.023Z,99.60
2017-12-30T20:06:05.397Z,99.60
2017-12-30T20:08:31.959Z,99.60
2017-12-30T20:10:58.516Z,99.60
2017-12-30T20:13:31.204Z,99.70
2017-12-30T20:15:58.586Z,99.70
2017-12-30T20:18:26.460Z,99.50
2017-12-30T20:26:48.905Z,99.40
2017-12-30T20:29:16.161Z,99.30
2017-12-30T20:31:43.197Z,99.40
2017-12-30T20:34:09.638Z,99.20
2017-12-30T20:36:37.933Z,99.20
2017-12-30T20:39:07.234Z,99.20
2017-12-30T20:41:33.736Z,99.10
2017-12-30T20:44:00.277Z,99.10
2017-12-30T20:46:30.137Z,99.00
2017-12-30T20:48:56.770Z,98.90
2017-12-30T20:51:24.095Z,98.70
2017-12-30T20:53:50.839Z,98.70
2017-12-30T20:59:10.430Z,98.60
2017-12-30T21:01:37.256Z,98.50
2017-12-30T21:04:04.011Z,98.50
2017-12-30T21:06:30.737Z,98.50
2017-12-30T21:08:58.101Z,98.40
2017-12-30T21:11:24.925Z,98.40
2017-12-30T21:13:51.579Z,98.40
2017-12-30T21:16:18.318Z,98.40
2017-12-30T21:24:51.446Z,98.50
2017-12-30T21:27:18.291Z,98.50
2017-12-30T21:29:45.646Z,98.90
2017-12-30T21:32:26.205Z,98.50
2017-12-30T21:34:52.927Z,98.50
2017-12-30T21:37:19.889Z,98.60
2017-12-30T21:39:53.284Z,98.60
2017-12-30T21:42:20.126Z,98.60
2017-12-30T21:44:46.762Z,98.50
2017-12-30T21:47:14.413Z,98.50
2017-12-30T21:50:05.519Z,98.50
2017-12-30T21:52:32.211Z,98.80
2017-12-30T21:54:58.885Z,98.50
2017-12-30T21:57:25.445Z,98.30
2017-12-30T22:02:47.290Z,98.20
2017-12-30T22:05:13.850Z,98.10
2017-12-30T22:07:40.500Z,98.10
2017-12-30T22:10:07.093Z,98.00
2017-12-30T22:12:33.839Z,98.00
2017-12-30T22:15:00.481Z,98.10
2017-12-30T22:17:27.215Z,98.00
2017-12-30T22:19:54.773Z,97.90
2017-12-30T22:22:35.234Z,98.00
2017-12-30T22:25:02.566Z,98.00
2017-12-30T22:27:29.210Z,98.10
2017-12-30T22:30:09.483Z,98.20
2017-12-30T22:32:36.016Z,98.10
2017-12-30T22:35:02.859Z,98.10
2017-12-30T22:37:29.702Z,98.20
2017-12-30T22:39:56.341Z,98.20
2017-12-30T22:42:30.030Z,98.30
2017-12-30T22:44:56.779Z,98.20
2017-12-30T22:47:24.547Z,97.90
2017-12-30T22:49:51.182Z,97.90
2017-12-30T22:52:17.902Z,98.10
2017-12-30T22:54:44.659Z,97.70
2017-12-30T22:57:12.217Z,97.50
2017-12-30T22:59:39.161Z,97.50
2017-12-30T23:05:10.938Z,97.40
2017-12-30T23:07:37.678Z,97.40
2017-12-30T23:10:04.414Z,97.50
2017-12-30T23:12:31.363Z,97.80
2017-12-30T23:15:03.428Z,97.60
2017-12-30T23:17:30.067Z,97.60
2017-12-30T23:19:56.803Z,97.70
2017-12-30T23:22:42.077Z,97.90
2017-12-30T23:25:09.021Z,97.90
2017-12-30T23:27:35.967Z,97.90
2017-12-30T23:30:02.806Z,97.90
2017-12-30T23:32:29.648Z,97.80
2017-12-30T23:35:02.931Z,97.70
2017-12-30T23:37:29.477Z,97.70
2017-12-30T23:39:56.813Z,97.70
2017-12-30T23:42:23.571Z,97.70
2017-12-30T23:44:54.199Z,97.60
2017-12-30T23:47:21.451Z,97.60
2017-12-30T23:49:48.088Z,97.60
2017-12-30T23:52:14.830Z,97.60
2017-12-30T23:54:41.567Z,97.60
2017-12-30T23:57:08.094Z,97.60
2017-12-30T23:59:34.738Z,97.70
